地図

経路データ

SID SEASON NUMBER BASIN SUBBASIN NAME ISO_TIME NATURE LAT LON WMO_WIND WMO_PRES WMO_AGENCY TRACK_TYPE DIST2LAND LANDFALL IFLAG USA_AGENCY USA_ATCF_ID USA_LAT USA_LON USA_RECORD USA_STATUS USA_WIND USA_PRES USA_SSHS USA_R34_NE USA_R34_SE USA_R34_SW USA_R34_NW USA_R50_NE USA_R50_SE USA_R50_SW USA_R50_NW USA_R64_NE USA_R64_SE USA_R64_SW USA_R64_NW USA_POCI USA_ROCI USA_RMW USA_EYE TOKYO_LAT TOKYO_LON TOKYO_GRADE TOKYO_WIND TOKYO_PRES TOKYO_R50_DIR TOKYO_R50_LONG TOKYO_R50_SHORT TOKYO_R30_DIR TOKYO_R30_LONG TOKYO_R30_SHORT TOKYO_LAND CMA_LAT CMA_LON CMA_CAT CMA_WIND CMA_PRES HKO_LAT HKO_LON HKO_CAT HKO_WIND HKO_PRES NEWDELHI_LAT NEWDELHI_LON NEWDELHI_GRADE NEWDELHI_WIND NEWDELHI_PRES NEWDELHI_CI NEWDELHI_DP NEWDELHI_POCI REUNION_LAT REUNION_LON REUNION_TYPE REUNION_WIND REUNION_PRES REUNION_TNUM REUNION_CI REUNION_RMW REUNION_R34_NE REUNION_R34_SE REUNION_R34_SW REUNION_R34_NW REUNION_R50_NE REUNION_R50_SE REUNION_R50_SW REUNION_R50_NW REUNION_R64_NE REUNION_R64_SE REUNION_R64_SW REUNION_R64_NW BOM_LAT BOM_LON BOM_TYPE BOM_WIND BOM_PRES BOM_TNUM BOM_CI BOM_RMW BOM_R34_NE BOM_R34_SE BOM_R34_SW BOM_R34_NW BOM_R50_NE BOM_R50_SE BOM_R50_SW BOM_R50_NW BOM_R64_NE BOM_R64_SE BOM_R64_SW BOM_R64_NW BOM_ROCI BOM_POCI BOM_EYE BOM_POS_METHOD BOM_PRES_METHOD NADI_LAT NADI_LON NADI_CAT NADI_WIND NADI_PRES WELLINGTON_LAT WELLINGTON_LON WELLINGTON_WIND WELLINGTON_PRES DS824_LAT DS824_LON DS824_STAGE DS824_WIND DS824_PRES TD9636_LAT TD9636_LON TD9636_STAGE TD9636_WIND TD9636_PRES TD9635_LAT TD9635_LON TD9635_WIND TD9635_PRES TD9635_ROCI NEUMANN_LAT NEUMANN_LON NEUMANN_CLASS NEUMANN_WIND NEUMANN_PRES MLC_LAT MLC_LON MLC_CLASS MLC_WIND MLC_PRES USA_GUST BOM_GUST BOM_GUST_PER REUNION_GUST REUNION_GUST_PER USA_SEAHGT USA_SEARAD_NE USA_SEARAD_SE USA_SEARAD_SW USA_SEARAD_NW STORM_SPEED STORM_DIR
1945218N16124 1945 43 WP MM QUEENIE 1945-08-05 12:00:00 TS 15.5000 123.500 main 159 102 O________OOO__ jtwc_wp WP101945 15.5000 123.500 40 0 15.5000 123.500 TC 40 15.5000 123.500 2 40 15.5000 123.500 40 998 180 12 295
1945218N16124 1945 43 WP MM QUEENIE 1945-08-05 15:00:00 TS 15.7477 122.948 main 93 30 P________PPP__ WP101945 15.7503 122.940 42 0 15.7503 122.940 TC 42 15.7400 122.971 2 41 15.7503 122.940 42 997 180 12 295
1945218N16124 1945 43 WP MM QUEENIE 1945-08-05 18:00:00 TS 15.9959 122.411 main 30 0 O________OPO__ jtwc_wp WP101945 16.0000 122.400 45 0 16.0000 122.400 TC 45 15.9835 122.443 2 42 16.0000 122.400 45 997 180 11 296
1945218N16124 1945 43 WP MM QUEENIE 1945-08-05 21:00:00 TS 16.2462 121.899 main 0 0 P________PPP__ WP101945 16.2498 121.892 45 0 16.2498 121.892 TC 45 16.2352 121.919 2 43 16.2498 121.892 45 996 150 11 297
1945218N16124 1945 43 WP MM QUEENIE 1945-08-06 00:00:00 TS 16.5000 121.400 main 0 0 O________OOO__ jtwc_wp WP101945 16.5000 121.400 45 0 16.5000 121.400 TC 45 16.5000 121.400 2 45 16.5000 121.400 45 996 120 11 298
1945218N16124 1945 43 WP MM QUEENIE 1945-08-06 03:00:00 TS 16.7570 120.892 main 0 0 P________PPP__ WP101945 16.7499 120.892 47 0 16.7499 120.892 TC 47 16.7782 120.891 2 46 16.7499 120.892 47 995 120 11 298
1945218N16124 1945 43 WP MM QUEENIE 1945-08-06 06:00:00 TS 17.0131 120.399 main 10 10 O________OPO__ jtwc_wp WP101945 17.0000 120.400 50 0 17.0000 120.400 TC 50 17.0523 120.398 2 47 17.0000 120.400 50 995 120 11 299
1945218N16124 1945 43 WP MM QUEENIE 1945-08-06 09:00:00 TS 17.2794 119.923 main 54 54 P________PPP__ WP101945 17.2725 119.920 50 0 17.2725 119.920 TC 50 17.3002 119.931 2 48 17.2725 119.920 50 994 120 10 300
1945218N16124 1945 43 WP MM QUEENIE 1945-08-06 12:00:00 TS 17.5000 119.500 main 85 85 O________OOO__ jtwc_wp WP101945 17.5000 119.500 50 0 17.5000 119.500 TC 50 17.5000 119.500 2 50 17.5000 119.500 50 993 120 8 296
1945218N16124 1945 43 WP MM QUEENIE 1945-08-06 15:00:00 TS 17.6295 119.175 main 116 116 P________PPP__ WP101945 17.6298 119.192 50 0 17.6298 119.192 TC 50 17.6287 119.121 2 52 17.6298 119.192 50 992 120 6 289
1945218N16124 1945 43 WP MM QUEENIE 1945-08-06 18:00:00 TS 17.7023 118.869 main 148 148 O________OPO__ jtwc_wp WP101945 17.7000 118.900 50 0 17.7000 118.900 TC 50 17.7091 118.777 2 55 17.7000 118.900 50 991 120 7 281
1945218N16124 1945 43 WP MM QUEENIE 1945-08-06 21:00:00 TS 17.7581 118.497 main 192 192 P________PPP__ WP101945 17.7575 118.515 55 0 17.7575 118.515 TC 55 17.7600 118.444 2 57 17.7575 118.515 55 989 120 7 278
1945218N16124 1945 43 WP MM QUEENIE 1945-08-07 00:00:00 TS 17.8000 118.100 main 234 234 O________OOO__ jtwc_wp WP101945 17.8000 118.100 60 0 17.8000 118.100 TC 60 17.8000 118.100 2 60 17.8000 118.100 60 988 120 8 277
1945218N16124 1945 43 WP MM QUEENIE 1945-08-07 03:00:00 TS 17.8467 117.701 main 276 276 P________PPP__ WP101945 17.8499 117.700 60 0 17.8499 117.700 TC 60 17.8369 117.706 2 62 17.8499 117.700 60 986 120 8 277
1945218N16124 1945 43 WP MM QUEENIE 1945-08-07 06:00:00 TS 17.8925 117.300 main 319 319 O________OPO__ jtwc_wp WP101945 17.9000 117.300 60 0 17.9000 117.300 TC 60 17.8700 117.299 2 65 17.9000 117.300 60 985 120 8 276
1945218N16124 1945 43 WP MM QUEENIE 1945-08-07 09:00:00 TS 17.9251 116.904 main 356 356 P________PPP__ WP101945 17.9274 116.907 65 1 17.9274 116.907 TC 65 17.9181 116.893 2 67 17.9274 116.907 65 983 120 8 278
1945218N16124 1945 43 WP MM QUEENIE 1945-08-07 12:00:00 TS 18.0000 116.500 main 398 398 O________OOO__ jtwc_wp WP101945 18.0000 116.500 70 1 18.0000 116.500 TC 70 18.0000 116.500 3 70 18.0000 116.500 70 981 120 8 287
1945218N16124 1945 43 WP MM QUEENIE 1945-08-07 15:00:00 TS 18.1725 116.057 main 446 446 P________PPP__ WP101945 18.1851 116.028 75 1 18.1851 116.028 TC 75 18.1346 116.144 3 70 18.1851 116.028 75 979 120 9 295
1945218N16124 1945 43 WP MM QUEENIE 1945-08-07 18:00:00 TS 18.3761 115.650 main 459 440 O________OPO__ jtwc_wp WP101945 18.4000 115.600 80 1 18.4000 115.600 TC 80 18.3044 115.800 3 70 18.4000 115.600 80 978 120 7 300
1945218N16124 1945 43 WP MM QUEENIE 1945-08-07 21:00:00 TS 18.5421 115.376 main 440 411 P________PPP__ WP101945 18.5572 115.350 75 1 18.5572 115.350 TC 75 18.4971 115.456 3 70 18.5572 115.350 75 979 150 6 302
1945218N16124 1945 43 WP MM QUEENIE 1945-08-08 00:00:00 TS 18.7000 115.100 main 411 389 O________OOO__ jtwc_wp WP101945 18.7000 115.100 70 1 18.7000 115.100 TC 70 18.7000 115.100 4 70 18.7000 115.100 70 981 180 7 295
1945218N16124 1945 43 WP MM QUEENIE 1945-08-08 03:00:00 TS 18.8507 114.671 main 379 342 P________PPP__ WP101945 18.8352 114.665 65 1 18.8352 114.665 TC 65 18.8971 114.690 4 67 18.8352 114.665 65 982 180 9 291
1945218N16124 1945 43 WP MM QUEENIE 1945-08-08 06:00:00 TS 19.0251 114.218 main 342 307 O________OPO__ jtwc_wp WP101945 19.0000 114.200 60 0 19.0000 114.200 TC 60 19.1003 114.270 4 65 19.0000 114.200 60 984 180 9 297
1945218N16124 1945 43 WP MM QUEENIE 1945-08-08 09:00:00 TS 19.2633 113.831 main 295 262 P________PPP__ WP101945 19.2499 113.820 60 0 19.2499 113.820 TC 60 19.3034 113.865 4 62 19.2499 113.820 60 985 210 8 305
1945218N16124 1945 43 WP MM QUEENIE 1945-08-08 12:00:00 TS 19.5000 113.500 main 262 230 O________OOO__ jtwc_wp WP101945 19.5000 113.500 60 0 19.5000 113.500 TC 60 19.5000 113.500 2 60 19.5000 113.500 60 986 240 7 305
1945218N16124 1945 43 WP MM QUEENIE 1945-08-08 15:00:00 TS 19.6625 113.228 main 230 210 P________PPP__ WP101945 19.6574 113.235 60 0 19.6574 113.235 TC 60 19.6776 113.206 2 60 19.6574 113.235 60 987 240 6 303
1945218N16124 1945 43 WP MM QUEENIE 1945-08-08 18:00:00 TS 19.8123 112.989 main 210 191 O________OPO__ jtwc_wp WP101945 19.8000 113.000 60 0 19.8000 113.000 TC 60 19.8494 112.954 2 60 19.8000 113.000 60 988 240 6 306
1945218N16124 1945 43 WP MM QUEENIE 1945-08-08 21:00:00 TS 19.9941 112.744 main 183 169 P________PPP__ WP101945 19.9850 112.750 60 0 19.9850 112.750 TC 60 20.0215 112.725 2 60 19.9850 112.750 60 989 270 6 310
1945218N16124 1945 43 WP MM QUEENIE 1945-08-09 00:00:00 TS 20.2000 112.500 main 169 142 O________OOO__ jtwc_wp WP101945 20.2000 112.500 60 0 20.2000 112.500 TC 60 20.2000 112.500 2 60 20.2000 112.500 60 990 300 6 314
1945218N16124 1945 43 WP MM QUEENIE 1945-08-09 03:00:00 TS 20.4405 112.253 main 142 98 P________PPP__ WP101945 20.4575 112.250 55 0 20.4575 112.250 TC 55 20.3894 112.264 2 55 20.4575 112.250 55 992 240 7 315
1945218N16124 1945 43 WP MM QUEENIE 1945-08-09 06:00:00 TS 20.6720 112.004 main 98 80 O________OPO__ jtwc_wp WP101945 20.7000 112.000 50 0 20.7000 112.000 TC 50 20.5880 112.016 2 50 20.7000 112.000 50 995 180 6 311
1945218N16124 1945 43 WP MM QUEENIE 1945-08-09 09:00:00 TS 20.8526 111.753 main 70 49 P________PPP__ WP101945 20.8726 111.750 45 0 20.8726 111.750 TC 45 20.7926 111.760 2 45 20.8726 111.750 45 996 180 6 305
1945218N16124 1945 43 WP MM QUEENIE 1945-08-09 12:00:00 TS 21.0000 111.500 main 49 O________OOO__ jtwc_wp WP101945 21.0000 111.500 40 0 21.0000 111.500 TC 40 21.0000 111.500 2 40 21.0000 111.500 40 998 180 6 302

デジタル台風データ・検索

IBTrACS Databaseについて

本データベースは、米国NOAAが公開する1842年以降の世界の熱帯低気圧のベストトラックデータアーカイブInternational Best Track Archive for Climate Stewardship (IBTrACS)を、ウェブで閲覧しやすい形式に変換したものです。

最終更新日:2021-12-03